createdAt,value
2019-01-26T00:01:10.396Z,15.48
2019-01-26T00:03:37.807Z,15.80
2019-01-26T00:06:05.227Z,14.15
2019-01-26T00:08:32.622Z,15.40
2019-01-26T00:10:59.974Z,14.85
2019-01-26T00:13:27.385Z,15.00
2019-01-26T00:15:54.708Z,15.00
2019-01-26T00:18:22.149Z,16.15
2019-01-26T00:20:49.566Z,17.50
2019-01-26T00:23:17.028Z,16.52
2019-01-26T00:25:44.439Z,17.10
2019-01-26T00:28:11.798Z,17.32
2019-01-26T00:30:39.228Z,17.27
2019-01-26T00:33:06.687Z,16.42
2019-01-26T00:35:34.099Z,15.90
2019-01-26T00:38:01.811Z,16.10
2019-01-26T00:40:29.163Z,19.48
2019-01-26T00:42:56.580Z,15.58
2019-01-26T00:45:23.875Z,17.80
2019-01-26T00:47:51.585Z,17.65
2019-01-26T00:50:18.883Z,16.80
2019-01-26T00:52:46.294Z,15.28
2019-01-26T00:55:13.889Z,17.85
2019-01-26T00:57:41.187Z,16.10
2019-01-26T01:00:11.139Z,17.50
2019-01-26T01:02:38.680Z,16.23
2019-01-26T01:05:07.852Z,15.38
2019-01-26T01:07:35.170Z,17.55
2019-01-26T01:10:02.688Z,14.90
2019-01-26T01:12:30.155Z,16.70
2019-01-26T01:14:57.571Z,16.25
2019-01-26T01:17:24.906Z,17.40
2019-01-26T01:19:52.331Z,16.15
2019-01-26T01:22:19.663Z,15.88
2019-01-26T01:24:46.983Z,15.10
2019-01-26T01:27:14.401Z,16.27
2019-01-26T01:29:41.730Z,17.57
2019-01-26T01:32:09.152Z,16.02
2019-01-26T01:34:36.555Z,18.27
2019-01-26T01:37:03.929Z,17.17
2019-01-26T01:39:31.303Z,16.00
2019-01-26T01:41:58.659Z,15.75
2019-01-26T01:44:26.180Z,17.42
2019-01-26T01:46:53.499Z,16.27
2019-01-26T01:49:20.809Z,14.85
2019-01-26T01:51:49.047Z,16.27
2019-01-26T01:54:16.467Z,18.30
2019-01-26T01:56:43.865Z,16.25
2019-01-26T01:59:11.636Z,17.75
2019-01-26T02:01:39.053Z,18.15
2019-01-26T02:04:06.447Z,17.00
2019-01-26T02:06:33.808Z,17.35
2019-01-26T02:09:01.101Z,19.30
2019-01-26T02:11:28.459Z,18.90
2019-01-26T02:13:55.876Z,17.12
2019-01-26T02:16:23.191Z,19.62
2019-01-26T02:18:50.602Z,17.48
2019-01-26T02:21:18.101Z,19.32
2019-01-26T02:23:45.514Z,18.92
2019-01-26T02:26:12.852Z,17.90
2019-01-26T02:28:40.263Z,18.87
2019-01-26T02:31:07.646Z,18.20
2019-01-26T02:33:35.054Z,17.95
2019-01-26T02:36:02.452Z,17.07
2019-01-26T02:38:29.752Z,18.32
2019-01-26T02:40:57.553Z,18.15
2019-01-26T02:43:24.963Z,19.25
2019-01-26T02:45:52.351Z,18.30
2019-01-26T02:48:19.657Z,17.07
2019-01-26T02:50:46.955Z,15.23
2019-01-26T02:53:14.345Z,15.55
2019-01-26T02:55:41.651Z,16.37
2019-01-26T02:58:09.018Z,18.42
2019-01-26T03:00:36.353Z,18.57
2019-01-26T03:03:03.661Z,18.27
2019-01-26T03:05:30.991Z,17.30
2019-01-26T03:07:58.317Z,19.12
2019-01-26T03:10:25.745Z,17.12
2019-01-26T03:12:53.187Z,19.87
2019-01-26T03:15:21.659Z,18.57
2019-01-26T03:17:49.262Z,19.35
2019-01-26T03:20:16.937Z,17.10
2019-01-26T03:22:44.258Z,17.15
2019-01-26T03:25:11.892Z,18.25
2019-01-26T03:27:39.304Z,17.80
2019-01-26T03:30:11.464Z,14.45
2019-01-26T03:32:38.862Z,16.73
2019-01-26T03:35:06.282Z,16.07
2019-01-26T03:37:33.582Z,14.30
2019-01-26T03:40:00.974Z,14.38
2019-01-26T03:42:28.313Z,15.45
2019-01-26T03:44:55.718Z,15.15
2019-01-26T03:47:23.020Z,16.35
2019-01-26T03:49:50.770Z,17.98
2019-01-26T03:52:18.169Z,16.12
2019-01-26T03:54:45.601Z,14.93
2019-01-26T03:57:13.017Z,16.45
2019-01-26T03:59:40.460Z,16.02
2019-01-26T04:02:07.842Z,14.93
2019-01-26T04:04:35.420Z,15.05
2019-01-26T04:07:02.898Z,14.80
2019-01-26T04:09:30.239Z,13.88
2019-01-26T04:11:57.524Z,15.00
2019-01-26T04:14:24.948Z,15.03
2019-01-26T04:16:52.255Z,15.20
2019-01-26T04:19:19.675Z,13.93
2019-01-26T04:21:47.047Z,13.40
2019-01-26T04:24:14.434Z,14.07
2019-01-26T04:26:41.755Z,13.83
2019-01-26T04:29:09.167Z,14.35
2019-01-26T04:31:36.596Z,12.98
2019-01-26T04:34:04.013Z,14.05
2019-01-26T04:36:31.387Z,14.18
2019-01-26T04:38:58.805Z,12.43
2019-01-26T04:41:26.190Z,13.68
2019-01-26T04:43:53.585Z,13.32
2019-01-26T04:46:20.972Z,12.88
2019-01-26T04:48:48.621Z,13.18
2019-01-26T04:51:16.048Z,12.95
2019-01-26T04:53:43.365Z,12.60
2019-01-26T04:56:10.813Z,12.73
2019-01-26T04:58:38.215Z,13.55
2019-01-26T05:01:05.559Z,13.53
2019-01-26T05:03:32.895Z,12.15
2019-01-26T05:06:00.288Z,13.90
2019-01-26T05:08:27.672Z,12.75
2019-01-26T05:10:55.113Z,13.10
2019-01-26T05:13:22.549Z,12.82
2019-01-26T05:15:49.964Z,12.50
2019-01-26T05:18:17.348Z,12.95
2019-01-26T05:20:44.694Z,11.90
2019-01-26T05:23:12.082Z,13.45
2019-01-26T05:25:39.437Z,11.28
2019-01-26T05:28:06.760Z,12.13
2019-01-26T05:30:34.086Z,13.30
2019-01-26T05:33:01.767Z,12.13
2019-01-26T05:35:29.165Z,11.55
2019-01-26T05:37:56.591Z,12.37
2019-01-26T05:40:24.294Z,12.60
2019-01-26T05:42:51.622Z,13.00
2019-01-26T05:45:20.313Z,13.43
2019-01-26T05:47:49.498Z,13.15
2019-01-26T05:50:18.788Z,13.05
2019-01-26T05:52:46.071Z,13.58
2019-01-26T05:55:13.796Z,13.38
2019-01-26T05:57:41.158Z,16.12
2019-01-26T06:00:11.499Z,16.67
2019-01-26T06:02:38.893Z,14.90
2019-01-26T06:05:06.313Z,12.80
2019-01-26T06:07:33.643Z,12.53
2019-01-26T06:10:01.044Z,14.07
2019-01-26T06:12:28.482Z,36.48
2019-01-26T06:14:55.814Z,28.47
2019-01-26T06:17:23.113Z,33.10
2019-01-26T06:19:50.420Z,36.40
2019-01-26T06:22:17.840Z,29.35
2019-01-26T06:24:45.155Z,25.55
2019-01-26T06:27:12.598Z,25.85
2019-01-26T06:29:39.910Z,26.15
2019-01-26T06:32:07.225Z,25.55
2019-01-26T06:34:34.622Z,23.55
2019-01-26T06:37:01.963Z,26.17
2019-01-26T06:39:29.386Z,28.90
2019-01-26T06:41:56.794Z,30.35
2019-01-26T06:44:24.195Z,30.20
2019-01-26T06:46:51.658Z,26.00
2019-01-26T06:49:19.072Z,22.75
2019-01-26T06:51:55.712Z,38.25
2019-01-26T06:54:23.030Z,28.05
2019-01-26T06:56:50.439Z,21.82
2019-01-26T06:59:17.807Z,37.00
2019-01-26T07:01:45.227Z,31.68
2019-01-26T07:04:17.215Z,27.17
2019-01-26T07:07:04.202Z,15.90
2019-01-26T07:09:31.902Z,15.58
2019-01-26T07:11:59.230Z,26.05
2019-01-26T07:14:26.738Z,31.35
2019-01-26T07:16:54.098Z,28.50
2019-01-26T07:19:21.522Z,31.02
2019-01-26T07:21:48.952Z,29.90
2019-01-26T07:24:16.373Z,29.87
2019-01-26T07:26:43.720Z,32.20
2019-01-26T07:29:11.164Z,32.25
2019-01-26T07:31:38.583Z,31.35
2019-01-26T07:34:06.009Z,30.68
2019-01-26T07:36:33.444Z,30.45
2019-01-26T07:39:00.848Z,30.70
2019-01-26T07:41:28.163Z,30.70
2019-01-26T07:43:55.622Z,31.90
2019-01-26T07:46:23.407Z,30.95
2019-01-26T07:48:50.764Z,30.70
2019-01-26T07:51:18.181Z,31.35
2019-01-26T07:53:45.618Z,31.77
2019-01-26T07:56:13.067Z,34.43
2019-01-26T07:58:40.468Z,36.55
2019-01-26T08:01:07.917Z,33.13
2019-01-26T08:03:35.343Z,33.28
2019-01-26T08:06:02.747Z,31.40
2019-01-26T08:08:30.168Z,33.63
2019-01-26T08:10:57.674Z,30.43
2019-01-26T08:13:24.989Z,32.70
2019-01-26T08:15:52.339Z,26.23
2019-01-26T08:18:24.005Z,32.50
2019-01-26T08:20:49.421Z,33.35
2019-01-26T08:23:16.856Z,32.42
2019-01-26T08:25:44.549Z,37.78
2019-01-26T08:28:11.910Z,31.00
2019-01-26T08:30:39.338Z,29.85
2019-01-26T08:33:06.776Z,32.23
2019-01-26T08:35:34.114Z,26.02
2019-01-26T08:38:01.581Z,28.92
2019-01-26T08:40:28.988Z,33.10
2019-01-26T08:42:56.346Z,65.90
2019-01-26T08:45:23.831Z,25.75
2019-01-26T08:47:51.224Z,26.25
2019-01-26T08:50:21.065Z,35.45
2019-01-26T08:52:48.533Z,23.20
2019-01-26T08:55:18.431Z,21.20
2019-01-26T08:57:45.142Z,19.82
2019-01-26T09:00:16.822Z,18.25
2019-01-26T09:03:09.786Z,17.65
2019-01-26T09:06:03.574Z,17.50
2019-01-26T09:08:31.714Z,17.48
2019-01-26T09:10:59.186Z,16.70
2019-01-26T09:13:26.652Z,18.17
2019-01-26T09:15:54.160Z,15.90
2019-01-26T09:18:22.043Z,15.50
2019-01-26T09:20:49.683Z,17.67
2019-01-26T09:23:17.194Z,17.77
2019-01-26T09:25:44.812Z,16.05
2019-01-26T09:28:12.497Z,16.80
2019-01-26T09:30:39.939Z,17.25
2019-01-26T09:33:07.763Z,16.52
2019-01-26T09:35:35.248Z,16.15
2019-01-26T09:38:03.175Z,16.62
2019-01-26T09:40:30.614Z,16.85
2019-01-26T09:42:58.003Z,15.75
2019-01-26T09:45:25.431Z,16.97
2019-01-26T09:47:52.881Z,15.70
2019-01-26T09:50:20.474Z,16.02
2019-01-26T09:52:49.961Z,15.85
2019-01-26T09:55:17.346Z,15.53
2019-01-26T09:57:44.772Z,15.50
2019-01-26T10:00:14.673Z,17.75
2019-01-26T10:02:42.133Z,16.35
2019-01-26T10:05:09.604Z,13.62
2019-01-26T10:07:37.083Z,15.80
2019-01-26T10:10:04.722Z,16.67
2019-01-26T10:12:32.157Z,15.78
2019-01-26T10:14:59.746Z,16.45
2019-01-26T10:17:27.244Z,16.50
2019-01-26T10:19:54.683Z,14.75
2019-01-26T10:22:22.312Z,14.78
2019-01-26T10:24:49.751Z,15.32
2019-01-26T10:27:17.126Z,17.80
2019-01-26T10:29:44.575Z,16.45
2019-01-26T10:32:12.009Z,16.17
2019-01-26T10:34:39.463Z,15.68
2019-01-26T10:37:15.486Z,15.35
2019-01-26T10:39:42.986Z,15.08
2019-01-26T10:42:28.046Z,15.20
2019-01-26T10:44:55.861Z,16.50
2019-01-26T10:47:23.318Z,14.85
2019-01-26T10:49:50.772Z,16.00
2019-01-26T10:52:18.299Z,14.87
2019-01-26T10:54:45.789Z,14.83
2019-01-26T10:57:13.373Z,14.63
2019-01-26T10:59:40.777Z,14.90
2019-01-26T11:02:08.253Z,13.62
2019-01-26T11:04:35.656Z,15.72
2019-01-26T11:07:03.137Z,15.28
2019-01-26T11:09:30.585Z,14.70
2019-01-26T11:11:58.323Z,15.05
2019-01-26T11:14:25.785Z,14.35
2019-01-26T11:16:53.228Z,15.95
2019-01-26T11:19:20.690Z,14.63
2019-01-26T11:21:48.057Z,13.68
2019-01-26T11:24:15.820Z,13.85
2019-01-26T11:26:49.301Z,14.23
2019-01-26T11:29:12.482Z,14.35
2019-01-26T11:31:40.465Z,14.13
2019-01-26T11:34:07.886Z,14.70
2019-01-26T11:36:35.578Z,14.00
2019-01-26T11:39:07.345Z,13.58
2019-01-26T11:41:34.818Z,13.70
2019-01-26T11:44:02.649Z,14.15
2019-01-26T11:46:33.718Z,14.33
2019-01-26T11:49:01.199Z,14.28
2019-01-26T11:51:48.180Z,14.95
2019-01-26T11:54:15.663Z,15.28
2019-01-26T11:56:51.990Z,15.15
2019-01-26T11:59:19.765Z,13.58
2019-01-26T12:02:00.640Z,12.85
2019-01-26T12:04:43.352Z,13.68
2019-01-26T12:07:13.387Z,11.45
2019-01-26T12:09:40.955Z,15.20
2019-01-26T12:12:09.447Z,14.85
2019-01-26T12:14:37.212Z,14.75
2019-01-26T12:17:04.765Z,14.47
2019-01-26T12:19:32.568Z,13.60
2019-01-26T12:22:00.067Z,12.63
2019-01-26T12:24:27.531Z,13.80
2019-01-26T12:26:54.988Z,13.48
2019-01-26T12:29:22.449Z,11.95
2019-01-26T12:31:49.881Z,13.88
2019-01-26T12:34:17.307Z,13.10
2019-01-26T12:36:44.719Z,13.38
2019-01-26T12:39:12.416Z,13.10
2019-01-26T12:41:39.853Z,12.65
2019-01-26T12:44:07.331Z,11.85
2019-01-26T12:46:34.802Z,12.13
2019-01-26T12:49:02.213Z,13.05
2019-01-26T12:51:29.562Z,12.07
2019-01-26T12:53:57.195Z,12.10
2019-01-26T12:56:24.959Z,12.58
2019-01-26T12:58:52.433Z,12.00
2019-01-26T13:01:19.901Z,12.45
2019-01-26T13:03:47.395Z,12.07
2019-01-26T13:06:14.871Z,11.50
2019-01-26T13:08:42.404Z,13.08
2019-01-26T13:11:22.443Z,12.25
2019-01-26T13:13:50.248Z,11.73
2019-01-26T13:16:18.062Z,12.00
2019-01-26T13:18:45.825Z,13.03
2019-01-26T13:21:13.296Z,12.65
2019-01-26T13:23:40.801Z,11.30
2019-01-26T13:26:08.343Z,10.85
2019-01-26T13:28:35.891Z,11.25
2019-01-26T13:31:03.667Z,11.57
2019-01-26T13:33:31.115Z,11.05
2019-01-26T13:35:58.902Z,11.22
2019-01-26T13:38:26.263Z,11.78
2019-01-26T13:40:53.674Z,11.45
2019-01-26T13:43:21.539Z,12.00
2019-01-26T13:45:49.049Z,11.60
2019-01-26T13:48:16.453Z,10.35
2019-01-26T13:50:44.153Z,11.90
2019-01-26T13:53:11.590Z,11.55
2019-01-26T13:55:39.060Z,11.33
2019-01-26T13:58:06.573Z,10.65
2019-01-26T14:00:34.499Z,10.72
2019-01-26T14:03:01.958Z,11.33
2019-01-26T14:05:29.401Z,11.75
2019-01-26T14:07:56.846Z,11.80
2019-01-26T14:10:24.719Z,10.70
2019-01-26T14:12:52.160Z,9.93
2019-01-26T14:15:19.963Z,11.33
2019-01-26T14:17:47.502Z,10.48
2019-01-26T14:20:17.124Z,10.95
2019-01-26T14:22:44.608Z,9.68
2019-01-26T14:25:12.111Z,10.43
2019-01-26T14:27:41.279Z,10.10
2019-01-26T14:30:18.078Z,10.35
2019-01-26T14:32:52.285Z,9.50
2019-01-26T14:35:16.984Z,10.75
2019-01-26T14:37:44.325Z,9.93
2019-01-26T14:40:12.260Z,9.53
2019-01-26T14:42:39.784Z,9.28
2019-01-26T14:45:08.255Z,9.43
2019-01-26T14:47:35.699Z,9.08
2019-01-26T14:50:04.345Z,8.88
2019-01-26T14:52:31.719Z,8.05
2019-01-26T14:54:59.163Z,8.75
2019-01-26T14:57:26.585Z,8.53
2019-01-26T14:59:54.070Z,8.88
2019-01-26T15:02:21.647Z,10.08
2019-01-26T15:04:49.254Z,9.75
2019-01-26T15:07:17.215Z,9.30
2019-01-26T15:09:44.712Z,9.55
2019-01-26T15:12:12.638Z,11.43
2019-01-26T15:14:40.112Z,9.55
2019-01-26T15:17:07.641Z,9.73
2019-01-26T15:19:35.347Z,8.75
2019-01-26T15:22:02.714Z,9.43
2019-01-26T15:24:30.141Z,9.70
2019-01-26T15:26:57.484Z,9.35
2019-01-26T15:29:25.327Z,9.00
2019-01-26T15:31:52.803Z,8.50
2019-01-26T15:34:20.279Z,8.88
2019-01-26T15:36:48.268Z,10.68
2019-01-26T15:39:15.771Z,9.10
2019-01-26T15:41:43.286Z,8.65
2019-01-26T15:44:10.740Z,9.83
2019-01-26T15:46:38.182Z,8.38
2019-01-26T15:49:05.639Z,9.30
2019-01-26T15:51:33.266Z,10.23
2019-01-26T15:54:00.699Z,9.20
2019-01-26T15:56:28.084Z,10.63
2019-01-26T15:58:55.579Z,10.00
2019-01-26T16:01:23.209Z,9.78
2019-01-26T16:03:51.135Z,8.90
2019-01-26T16:06:18.822Z,9.43
2019-01-26T16:08:46.447Z,9.15
2019-01-26T16:11:13.930Z,8.73
2019-01-26T16:13:41.426Z,8.65
2019-01-26T16:16:08.807Z,8.60
2019-01-26T16:18:36.324Z,8.63
2019-01-26T16:21:03.875Z,7.83
2019-01-26T16:23:31.399Z,8.93
2019-01-26T16:25:58.846Z,8.45
2019-01-26T16:28:26.296Z,10.08
2019-01-26T16:30:53.740Z,8.10
2019-01-26T16:33:21.095Z,8.05
2019-01-26T16:35:48.541Z,8.90
2019-01-26T16:38:15.998Z,10.35
2019-01-26T16:40:43.465Z,11.57
2019-01-26T16:43:10.924Z,12.03
2019-01-26T16:45:39.707Z,9.30
2019-01-26T16:48:10.055Z,8.88
2019-01-26T16:50:37.742Z,35.98
2019-01-26T16:53:05.119Z,12.30
2019-01-26T16:55:32.609Z,9.25
2019-01-26T16:58:00.083Z,8.25
2019-01-26T17:00:38.849Z,9.30
2019-01-26T17:03:06.312Z,10.25
2019-01-26T17:05:33.931Z,13.60
2019-01-26T17:08:01.303Z,9.30
2019-01-26T17:10:34.157Z,9.40
2019-01-26T17:12:58.246Z,9.90
2019-01-26T17:15:25.570Z,10.00
2019-01-26T17:17:53.073Z,8.58
2019-01-26T17:20:25.532Z,9.75
2019-01-26T17:22:53.753Z,8.50
2019-01-26T17:25:21.245Z,8.90
2019-01-26T17:27:48.731Z,8.95
2019-01-26T17:30:18.501Z,8.23
2019-01-26T17:32:45.919Z,8.18
2019-01-26T17:35:13.470Z,8.08
2019-01-26T17:37:40.982Z,9.43
2019-01-26T17:40:12.057Z,8.98
2019-01-26T17:42:39.508Z,9.48
2019-01-26T17:45:07.300Z,9.70
2019-01-26T17:47:34.825Z,9.83
2019-01-26T17:50:03.025Z,10.60
2019-01-26T17:52:30.523Z,15.50
2019-01-26T17:54:58.089Z,23.65
2019-01-26T17:57:25.986Z,11.18
2019-01-26T17:59:53.451Z,9.68
2019-01-26T18:02:21.048Z,9.98
2019-01-26T18:04:48.695Z,9.10
2019-01-26T18:07:16.205Z,9.70
2019-01-26T18:09:43.801Z,8.50
2019-01-26T18:12:11.332Z,9.83
2019-01-26T18:14:38.988Z,23.30
2019-01-26T18:17:06.938Z,10.35
2019-01-26T18:19:34.697Z,10.18
2019-01-26T18:22:02.081Z,10.13
2019-01-26T18:24:29.550Z,9.70
2019-01-26T18:26:56.987Z,10.63
2019-01-26T18:29:24.477Z,10.65
2019-01-26T18:31:51.914Z,9.83
2019-01-26T18:34:19.453Z,10.08
2019-01-26T18:36:46.925Z,10.10
2019-01-26T18:39:14.424Z,8.48
2019-01-26T18:41:41.900Z,10.00
2019-01-26T18:44:09.407Z,9.25
2019-01-26T18:46:36.886Z,10.03
2019-01-26T18:49:04.422Z,9.13
2019-01-26T18:51:31.983Z,10.18
2019-01-26T18:53:59.537Z,11.30
2019-01-26T18:56:27.018Z,9.50
2019-01-26T18:58:54.763Z,7.95
2019-01-26T19:01:22.236Z,8.73
2019-01-26T19:04:06.358Z,8.13
2019-01-26T19:06:33.897Z,9.43
2019-01-26T19:09:01.383Z,9.30
2019-01-26T19:11:28.754Z,9.10
2019-01-26T19:13:56.182Z,9.58
2019-01-26T19:16:23.721Z,10.18
2019-01-26T19:18:51.400Z,9.20
2019-01-26T19:21:18.899Z,9.30
2019-01-26T19:23:46.502Z,9.23
2019-01-26T19:26:13.998Z,8.98
2019-01-26T19:28:41.411Z,8.68
2019-01-26T19:31:08.891Z,7.92
2019-01-26T19:33:36.405Z,8.78
2019-01-26T19:36:04.473Z,8.23
2019-01-26T19:38:32.094Z,9.38
2019-01-26T19:40:59.660Z,8.78
2019-01-26T19:43:27.157Z,8.60
2019-01-26T19:45:54.690Z,10.43
2019-01-26T19:48:22.183Z,8.68
2019-01-26T19:50:49.776Z,9.55
2019-01-26T19:53:17.268Z,8.20
2019-01-26T19:55:44.861Z,8.83
2019-01-26T19:58:13.024Z,8.73
2019-01-26T20:00:40.575Z,10.80
2019-01-26T20:03:09.174Z,9.88
2019-01-26T20:05:36.731Z,9.33
2019-01-26T20:08:04.630Z,10.05
2019-01-26T20:10:32.193Z,9.23
2019-01-26T20:12:59.713Z,8.40
2019-01-26T20:15:27.436Z,9.23
2019-01-26T20:17:54.903Z,10.40
2019-01-26T20:20:25.478Z,11.40
2019-01-26T20:22:52.965Z,10.25
2019-01-26T20:25:20.370Z,9.73
2019-01-26T20:27:47.810Z,10.80
2019-01-26T20:30:21.741Z,10.98
2019-01-26T20:32:49.207Z,9.73
2019-01-26T20:35:16.775Z,9.80
2019-01-26T20:37:44.296Z,11.20
2019-01-26T20:40:13.690Z,10.65
2019-01-26T20:42:41.242Z,9.35
2019-01-26T20:45:11.497Z,9.88
2019-01-26T20:47:39.034Z,10.43
2019-01-26T20:50:07.758Z,8.55
2019-01-26T20:52:35.216Z,9.08
2019-01-26T20:55:02.771Z,9.75
2019-01-26T20:57:30.296Z,9.05
2019-01-26T20:59:57.842Z,9.68
2019-01-26T21:02:25.648Z,9.55
2019-01-26T21:04:53.124Z,18.82
2019-01-26T21:07:20.798Z,29.52
2019-01-26T21:09:48.579Z,36.55
2019-01-26T21:12:16.042Z,57.03
2019-01-26T21:14:43.576Z,24.92
2019-01-26T21:17:11.070Z,16.17
2019-01-26T21:19:38.639Z,13.32
2019-01-26T21:22:06.133Z,12.15
2019-01-26T21:24:33.664Z,11.55
2019-01-26T21:27:01.189Z,13.22
2019-01-26T21:29:28.730Z,12.47
2019-01-26T21:31:56.604Z,12.03
2019-01-26T21:34:24.078Z,14.00
2019-01-26T21:36:51.645Z,12.30
2019-01-26T21:39:19.091Z,12.95
2019-01-26T21:41:46.668Z,11.65
2019-01-26T21:44:14.116Z,10.98
2019-01-26T21:46:41.652Z,12.07
2019-01-26T21:49:09.535Z,11.33
2019-01-26T21:51:39.053Z,11.05
2019-01-26T21:54:06.702Z,10.20
2019-01-26T21:56:34.193Z,11.10
2019-01-26T21:59:01.689Z,11.35
2019-01-26T22:01:29.250Z,10.50
2019-01-26T22:03:56.754Z,10.10
2019-01-26T22:06:24.229Z,9.45
2019-01-26T22:08:51.739Z,10.40
2019-01-26T22:11:19.278Z,10.08
2019-01-26T22:13:46.716Z,10.25
2019-01-26T22:16:14.196Z,11.45
2019-01-26T22:18:42.362Z,9.40
2019-01-26T22:21:09.789Z,10.88
2019-01-26T22:23:37.277Z,10.10
2019-01-26T22:26:04.804Z,11.28
2019-01-26T22:28:32.221Z,11.00
2019-01-26T22:30:59.727Z,10.08
2019-01-26T22:33:27.243Z,10.70
2019-01-26T22:35:54.739Z,10.93
2019-01-26T22:38:22.174Z,10.25
2019-01-26T22:40:49.608Z,10.72
2019-01-26T22:43:17.256Z,11.55
2019-01-26T22:45:44.653Z,16.30
2019-01-26T22:48:12.131Z,14.73
2019-01-26T22:50:39.594Z,11.35
2019-01-26T22:53:07.031Z,10.55
2019-01-26T22:55:34.490Z,9.90
2019-01-26T22:58:03.978Z,9.83
2019-01-26T23:01:19.627Z,8.25
2019-01-26T23:04:24.371Z,10.18
2019-01-26T23:07:33.816Z,10.38
2019-01-26T23:10:35.929Z,9.93
2019-01-26T23:13:45.378Z,9.60
2019-01-26T23:16:53.559Z,10.08
2019-01-26T23:19:44.262Z,10.53
2019-01-26T23:22:56.770Z,11.00
2019-01-26T23:26:05.669Z,11.08
2019-01-26T23:29:03.454Z,9.23
2019-01-26T23:31:30.925Z,11.05
2019-01-26T23:33:58.379Z,11.22
2019-01-26T23:36:25.820Z,10.20
2019-01-26T23:38:54.001Z,10.65
2019-01-26T23:41:21.411Z,10.43
2019-01-26T23:43:48.872Z,10.50
2019-01-26T23:46:16.301Z,12.00
2019-01-26T23:48:43.713Z,14.45
2019-01-26T23:51:11.084Z,12.50
2019-01-26T23:53:38.529Z,12.15
2019-01-26T23:56:05.958Z,11.10
2019-01-26T23:58:33.438Z,10.55
